Terminal Aerodrome Forecast
Issued by NWS Billings, MT

Home | Current Version | Previous Version | Text Only | Print | Product List | Glossary Off
Versions: 1 2 3 4 5 6 7 8 9 10 11 12 13 14 15 16 17 18 19 20 21 22

000
FTUS45 KBYZ 181120
TAFMLS
TAF
KMLS 181120Z 1812/1912 16012KT P6SM VCSH SCT120
     FM181500 20010KT P6SM SCT150
     FM190100 26011KT P6SM VCTS SCT100CB BKN150=

USA.gov is the U.S. government's official web portal to all federal, state and local government web resources and services.